Strona główna
METAR-TAF:

METAR-TAF

Lotnisko :

Marham, Anglia

Szerokość geograficzna: 52-39N, Długość geograficzna: 000-34E, wysokość: 23 m

Aktualna obserwacja pogody

Raport powstał 21 minut temu, godzina 00:50 UTC
Wiatr 12 kt od wschodnio-południowy wschód
Temperatura 22°C
Wilgotność 69%
Ciśnienie 1012 hPa
Widzialność 10 km lub więcej

METAR: EGYM 240050Z AUTO 11012KT 9999 FEW100/// 22/16 Q1012

czas: 02:11 (01:11 UTC)

Prognoza

Raport powstał 14 godziny i 33 minut temu, godzina 10:38 UTC
Prognoza ważna od 23 godzina 12 UTC do 23 godzina 18 UTC
Wiatr 8 kt od południe
Widzialność 10 km lub więcej
Mało chmury na wysokości 3000 ft

TAF: EGYM 231038Z 2312/2318 17008KT 9999 FEW030

Obserwacja i prognoza pogody dla ponad 4000 lotnisk (raport METAR i TAF).

Dostępne stacje oznaczono żółtymi i czerwonymi punktami na mapie.

Najedź kursorem aby zobaczyć nazwę stacji.

Kliknij aby zobaczyć obserwacje i prognozy pogody.

Aby zmienić mapę: kliknij na zielony przycisk z czarnym krzyżykiem, aby powiększyć; na zielony przycisk z myślnikiem, aby pomniejszyć; na zielone strzałki, aby przejść do map sąsiednich.


METAR-TAF: